sensor_id;sensor_type;location;lat;lon;timestamp;temperature;humidity
2825;DHT22;1420;51.324;12.344;2023-06-14T00:00:49;13.60;99.90
2825;DHT22;1420;51.324;12.344;2023-06-14T00:03:16;13.60;99.90
2825;DHT22;1420;51.324;12.344;2023-06-14T00:05:43;13.50;99.90
2825;DHT22;1420;51.324;12.344;2023-06-14T00:08:10;13.60;99.90
2825;DHT22;1420;51.324;12.344;2023-06-14T00:10:38;13.50;99.90
2825;DHT22;1420;51.324;12.344;2023-06-14T00:13:05;13.40;99.90
2825;DHT22;1420;51.324;12.344;2023-06-14T00:15:33;13.30;99.90
2825;DHT22;1420;51.324;12.344;2023-06-14T00:18:00;13.30;99.90
2825;DHT22;1420;51.324;12.344;2023-06-14T00:20:28;13.30;99.90
2825;DHT22;1420;51.324;12.344;2023-06-14T00:22:55;13.20;99.90
2825;DHT22;1420;51.324;12.344;2023-06-14T00:25:22;13.10;99.90
2825;DHT22;1420;51.324;12.344;2023-06-14T00:27:49;13.10;99.90
2825;DHT22;1420;51.324;12.344;2023-06-14T00:30:17;13.10;99.90
2825;DHT22;1420;51.324;12.344;2023-06-14T00:32:46;13.20;99.90
2825;DHT22;1420;51.324;12.344;2023-06-14T00:35:13;13.00;99.90
2825;DHT22;1420;51.324;12.344;2023-06-14T00:37:41;13.00;99.90
2825;DHT22;1420;51.324;12.344;2023-06-14T00:40:08;13.00;99.90
2825;DHT22;1420;51.324;12.344;2023-06-14T00:42:35;13.00;99.90
2825;DHT22;1420;51.324;12.344;2023-06-14T00:45:03;12.90;99.90
2825;DHT22;1420;51.324;12.344;2023-06-14T00:47:31;12.90;99.90
2825;DHT22;1420;51.324;12.344;2023-06-14T00:49:58;13.00;99.90
2825;DHT22;1420;51.324;12.344;2023-06-14T00:52:26;12.90;99.90
2825;DHT22;1420;51.324;12.344;2023-06-14T00:54:53;12.80;99.90
2825;DHT22;1420;51.324;12.344;2023-06-14T00:57:20;12.90;99.90
2825;DHT22;1420;51.324;12.344;2023-06-14T00:59:48;12.90;99.90
2825;DHT22;1420;51.324;12.344;2023-06-14T01:02:15;12.80;99.90
2825;DHT22;1420;51.324;12.344;2023-06-14T01:04:43;12.80;99.90
2825;DHT22;1420;51.324;12.344;2023-06-14T01:12:52;12.70;99.90
2825;DHT22;1420;51.324;12.344;2023-06-14T01:15:17;12.80;99.90
2825;DHT22;1420;51.324;12.344;2023-06-14T01:17:45;12.60;99.90
2825;DHT22;1420;51.324;12.344;2023-06-14T01:20:12;12.60;99.90
2825;DHT22;1420;51.324;12.344;2023-06-14T01:22:57;12.60;99.90
2825;DHT22;1420;51.324;12.344;2023-06-14T01:25:25;12.60;99.90
2825;DHT22;1420;51.324;12.344;2023-06-14T01:28:00;12.60;99.90
2825;DHT22;1420;51.324;12.344;2023-06-14T01:30:23;12.70;99.90
2825;DHT22;1420;51.324;12.344;2023-06-14T01:32:50;12.60;99.90
2825;DHT22;1420;51.324;12.344;2023-06-14T01:35:18;12.70;99.90
2825;DHT22;1420;51.324;12.344;2023-06-14T01:37:45;12.70;99.90
2825;DHT22;1420;51.324;12.344;2023-06-14T01:40:12;12.70;99.90
2825;DHT22;1420;51.324;12.344;2023-06-14T01:42:40;12.50;99.90
2825;DHT22;1420;51.324;12.344;2023-06-14T01:45:08;12.40;99.90
2825;DHT22;1420;51.324;12.344;2023-06-14T01:47:35;12.40;99.90
2825;DHT22;1420;51.324;12.344;2023-06-14T01:50:03;12.60;99.90
2825;DHT22;1420;51.324;12.344;2023-06-14T01:52:30;12.50;99.90
2825;DHT22;1420;51.324;12.344;2023-06-14T01:54:57;12.40;99.90
2825;DHT22;1420;51.324;12.344;2023-06-14T01:57:25;12.40;99.90
2825;DHT22;1420;51.324;12.344;2023-06-14T01:59:52;12.30;99.90
2825;DHT22;1420;51.324;12.344;2023-06-14T02:02:19;12.30;99.90
2825;DHT22;1420;51.324;12.344;2023-06-14T02:04:46;12.20;99.90
2825;DHT22;1420;51.324;12.344;2023-06-14T02:07:14;12.10;99.90
2825;DHT22;1420;51.324;12.344;2023-06-14T02:09:41;12.10;99.90
2825;DHT22;1420;51.324;12.344;2023-06-14T02:12:09;12.00;99.90
2825;DHT22;1420;51.324;12.344;2023-06-14T02:14:36;12.00;99.90
2825;DHT22;1420;51.324;12.344;2023-06-14T02:17:03;12.00;99.90
2825;DHT22;1420;51.324;12.344;2023-06-14T02:19:30;12.00;99.90
2825;DHT22;1420;51.324;12.344;2023-06-14T02:21:58;11.90;99.90
2825;DHT22;1420;51.324;12.344;2023-06-14T02:24:25;11.90;99.90
2825;DHT22;1420;51.324;12.344;2023-06-14T02:26:52;12.00;99.90
2825;DHT22;1420;51.324;12.344;2023-06-14T02:29:19;11.90;99.90
2825;DHT22;1420;51.324;12.344;2023-06-14T02:31:46;11.90;99.90
2825;DHT22;1420;51.324;12.344;2023-06-14T02:34:14;11.90;99.90
2825;DHT22;1420;51.324;12.344;2023-06-14T02:36:41;11.80;99.90
2825;DHT22;1420;51.324;12.344;2023-06-14T02:39:09;11.70;99.90
2825;DHT22;1420;51.324;12.344;2023-06-14T02:41:36;11.80;99.90
2825;DHT22;1420;51.324;12.344;2023-06-14T02:44:03;11.80;99.90
2825;DHT22;1420;51.324;12.344;2023-06-14T02:46:31;11.70;99.90
2825;DHT22;1420;51.324;12.344;2023-06-14T02:48:59;11.70;99.90
2825;DHT22;1420;51.324;12.344;2023-06-14T02:51:27;11.60;99.90
2825;DHT22;1420;51.324;12.344;2023-06-14T02:53:55;11.60;99.90
2825;DHT22;1420;51.324;12.344;2023-06-14T02:56:23;11.60;99.90
2825;DHT22;1420;51.324;12.344;2023-06-14T02:58:51;11.60;99.90
2825;DHT22;1420;51.324;12.344;2023-06-14T03:01:19;11.60;99.90
2825;DHT22;1420;51.324;12.344;2023-06-14T03:03:47;11.60;99.90
2825;DHT22;1420;51.324;12.344;2023-06-14T03:06:15;11.60;99.90
2825;DHT22;1420;51.324;12.344;2023-06-14T03:08:43;11.50;99.90
2825;DHT22;1420;51.324;12.344;2023-06-14T03:11:10;11.50;99.90
2825;DHT22;1420;51.324;12.344;2023-06-14T03:13:38;11.50;99.90
2825;DHT22;1420;51.324;12.344;2023-06-14T03:16:05;11.50;99.90
2825;DHT22;1420;51.324;12.344;2023-06-14T03:18:32;11.50;99.90
2825;DHT22;1420;51.324;12.344;2023-06-14T03:21:00;11.50;99.90
2825;DHT22;1420;51.324;12.344;2023-06-14T03:23:27;11.40;99.90
2825;DHT22;1420;51.324;12.344;2023-06-14T03:25:55;11.40;99.90
2825;DHT22;1420;51.324;12.344;2023-06-14T03:28:23;11.40;99.90
2825;DHT22;1420;51.324;12.344;2023-06-14T03:30:51;11.40;99.90
2825;DHT22;1420;51.324;12.344;2023-06-14T03:33:18;11.30;99.90
2825;DHT22;1420;51.324;12.344;2023-06-14T03:35:45;11.40;99.90
2825;DHT22;1420;51.324;12.344;2023-06-14T03:38:13;11.40;99.90
2825;DHT22;1420;51.324;12.344;2023-06-14T03:40:41;11.30;99.90
2825;DHT22;1420;51.324;12.344;2023-06-14T03:43:08;11.40;99.90
2825;DHT22;1420;51.324;12.344;2023-06-14T03:45:35;11.40;99.90
2825;DHT22;1420;51.324;12.344;2023-06-14T03:48:02;11.40;99.90
2825;DHT22;1420;51.324;12.344;2023-06-14T03:50:30;11.40;99.90
2825;DHT22;1420;51.324;12.344;2023-06-14T03:52:58;11.50;99.90
2825;DHT22;1420;51.324;12.344;2023-06-14T03:55:25;11.50;99.90
2825;DHT22;1420;51.324;12.344;2023-06-14T03:57:53;11.50;99.90
2825;DHT22;1420;51.324;12.344;2023-06-14T04:00:20;11.60;99.90
2825;DHT22;1420;51.324;12.344;2023-06-14T04:02:48;11.60;99.90
2825;DHT22;1420;51.324;12.344;2023-06-14T04:05:16;11.70;99.90
2825;DHT22;1420;51.324;12.344;2023-06-14T04:07:43;11.60;99.90
2825;DHT22;1420;51.324;12.344;2023-06-14T04:10:12;11.70;99.90
2825;DHT22;1420;51.324;12.344;2023-06-14T04:12:40;11.70;99.90
2825;DHT22;1420;51.324;12.344;2023-06-14T04:15:08;11.60;99.90
2825;DHT22;1420;51.324;12.344;2023-06-14T04:17:36;11.60;99.90
2825;DHT22;1420;51.324;12.344;2023-06-14T04:20:04;11.70;99.90
2825;DHT22;1420;51.324;12.344;2023-06-14T04:22:34;11.70;99.90
2825;DHT22;1420;51.324;12.344;2023-06-14T04:25:00;11.70;99.90
2825;DHT22;1420;51.324;12.344;2023-06-14T04:27:27;11.80;99.90
2825;DHT22;1420;51.324;12.344;2023-06-14T04:29:55;11.90;99.90
2825;DHT22;1420;51.324;12.344;2023-06-14T04:32:24;11.90;99.90
2825;DHT22;1420;51.324;12.344;2023-06-14T04:34:54;12.00;99.90
2825;DHT22;1420;51.324;12.344;2023-06-14T04:37:22;12.10;99.90
2825;DHT22;1420;51.324;12.344;2023-06-14T04:39:50;12.20;99.90
2825;DHT22;1420;51.324;12.344;2023-06-14T04:42:17;12.10;99.90
2825;DHT22;1420;51.324;12.344;2023-06-14T04:44:45;12.20;99.90
2825;DHT22;1420;51.324;12.344;2023-06-14T04:47:13;12.80;99.90
2825;DHT22;1420;51.324;12.344;2023-06-14T04:49:40;12.80;99.90
2825;DHT22;1420;51.324;12.344;2023-06-14T04:52:07;12.90;99.90
2825;DHT22;1420;51.324;12.344;2023-06-14T04:54:34;12.90;99.90
2825;DHT22;1420;51.324;12.344;2023-06-14T04:57:06;12.90;99.90
2825;DHT22;1420;51.324;12.344;2023-06-14T04:59:34;12.90;99.90
2825;DHT22;1420;51.324;12.344;2023-06-14T05:02:01;12.70;99.90
2825;DHT22;1420;51.324;12.344;2023-06-14T05:04:29;12.90;99.90
2825;DHT22;1420;51.324;12.344;2023-06-14T05:06:57;12.90;99.90
2825;DHT22;1420;51.324;12.344;2023-06-14T05:09:25;13.00;99.90
2825;DHT22;1420;51.324;12.344;2023-06-14T05:11:52;13.00;99.90
2825;DHT22;1420;51.324;12.344;2023-06-14T05:14:20;13.10;99.90
2825;DHT22;1420;51.324;12.344;2023-06-14T05:16:47;13.10;99.90
2825;DHT22;1420;51.324;12.344;2023-06-14T05:19:15;13.10;99.90
2825;DHT22;1420;51.324;12.344;2023-06-14T05:21:42;13.20;99.90
2825;DHT22;1420;51.324;12.344;2023-06-14T05:24:10;13.50;99.90
2825;DHT22;1420;51.324;12.344;2023-06-14T05:26:38;13.40;99.90
2825;DHT22;1420;51.324;12.344;2023-06-14T05:29:06;13.50;99.90
2825;DHT22;1420;51.324;12.344;2023-06-14T05:31:33;13.40;99.90
2825;DHT22;1420;51.324;12.344;2023-06-14T05:34:00;13.50;99.90
2825;DHT22;1420;51.324;12.344;2023-06-14T05:36:27;13.60;99.90
2825;DHT22;1420;51.324;12.344;2023-06-14T05:38:55;13.80;99.90
2825;DHT22;1420;51.324;12.344;2023-06-14T05:41:25;14.00;99.90
2825;DHT22;1420;51.324;12.344;2023-06-14T05:43:53;14.10;99.90
2825;DHT22;1420;51.324;12.344;2023-06-14T05:46:20;14.20;99.90
2825;DHT22;1420;51.324;12.344;2023-06-14T05:48:48;14.60;99.90
2825;DHT22;1420;51.324;12.344;2023-06-14T05:51:16;15.10;99.90
2825;DHT22;1420;51.324;12.344;2023-06-14T05:53:43;15.10;99.90
2825;DHT22;1420;51.324;12.344;2023-06-14T05:56:10;15.40;99.90
2825;DHT22;1420;51.324;12.344;2023-06-14T05:58:38;15.80;99.90
2825;DHT22;1420;51.324;12.344;2023-06-14T06:01:05;16.10;99.90
2825;DHT22;1420;51.324;12.344;2023-06-14T06:03:32;16.40;99.90
2825;DHT22;1420;51.324;12.344;2023-06-14T06:05:59;16.30;99.90
2825;DHT22;1420;51.324;12.344;2023-06-14T06:08:27;16.30;99.90
2825;DHT22;1420;51.324;12.344;2023-06-14T06:10:58;17.00;99.90
2825;DHT22;1420;51.324;12.344;2023-06-14T06:13:34;17.00;99.90
2825;DHT22;1420;51.324;12.344;2023-06-14T06:16:07;17.30;99.90
2825;DHT22;1420;51.324;12.344;2023-06-14T06:18:36;16.80;99.90
2825;DHT22;1420;51.324;12.344;2023-06-14T06:21:04;17.60;99.90
2825;DHT22;1420;51.324;12.344;2023-06-14T06:23:32;17.70;99.90
2825;DHT22;1420;51.324;12.344;2023-06-14T06:26:00;17.80;99.90
2825;DHT22;1420;51.324;12.344;2023-06-14T06:28:28;17.70;99.90
2825;DHT22;1420;51.324;12.344;2023-06-14T06:30:55;17.70;99.90
2825;DHT22;1420;51.324;12.344;2023-06-14T06:33:22;18.40;99.90
2825;DHT22;1420;51.324;12.344;2023-06-14T06:35:54;18.10;99.90
2825;DHT22;1420;51.324;12.344;2023-06-14T06:38:22;19.00;96.40
2825;DHT22;1420;51.324;12.344;2023-06-14T06:40:49;19.60;92.40
2825;DHT22;1420;51.324;12.344;2023-06-14T06:43:20;19.80;90.00
2825;DHT22;1420;51.324;12.344;2023-06-14T06:45:53;20.20;84.60
2825;DHT22;1420;51.324;12.344;2023-06-14T06:48:20;20.20;82.60
2825;DHT22;1420;51.324;12.344;2023-06-14T06:50:48;19.80;80.80
2825;DHT22;1420;51.324;12.344;2023-06-14T06:53:16;20.20;78.70
2825;DHT22;1420;51.324;12.344;2023-06-14T06:55:44;20.30;79.20
2825;DHT22;1420;51.324;12.344;2023-06-14T06:58:12;20.30;79.20
2825;DHT22;1420;51.324;12.344;2023-06-14T07:00:39;20.70;77.70
2825;DHT22;1420;51.324;12.344;2023-06-14T07:03:06;20.20;76.10
2825;DHT22;1420;51.324;12.344;2023-06-14T07:05:33;20.10;78.10
2825;DHT22;1420;51.324;12.344;2023-06-14T07:08:00;20.50;75.80
2825;DHT22;1420;51.324;12.344;2023-06-14T07:10:28;20.90;72.40
2825;DHT22;1420;51.324;12.344;2023-06-14T07:12:56;20.60;72.00
2825;DHT22;1420;51.324;12.344;2023-06-14T07:15:24;20.80;72.60
2825;DHT22;1420;51.324;12.344;2023-06-14T07:17:51;20.50;71.60
2825;DHT22;1420;51.324;12.344;2023-06-14T07:20:18;20.00;72.70
2825;DHT22;1420;51.324;12.344;2023-06-14T07:22:46;20.70;70.70
2825;DHT22;1420;51.324;12.344;2023-06-14T07:25:14;21.30;67.50
2825;DHT22;1420;51.324;12.344;2023-06-14T07:27:42;20.90;67.70
2825;DHT22;1420;51.324;12.344;2023-06-14T07:30:10;21.30;64.60
2825;DHT22;1420;51.324;12.344;2023-06-14T07:32:38;21.40;63.50
2825;DHT22;1420;51.324;12.344;2023-06-14T07:35:07;21.30;63.40
2825;DHT22;1420;51.324;12.344;2023-06-14T07:37:35;22.10;60.00
2825;DHT22;1420;51.324;12.344;2023-06-14T07:40:03;21.50;60.50
2825;DHT22;1420;51.324;12.344;2023-06-14T07:42:30;21.30;61.10
2825;DHT22;1420;51.324;12.344;2023-06-14T07:44:57;21.60;59.30
2825;DHT22;1420;51.324;12.344;2023-06-14T07:47:25;21.90;58.50
2825;DHT22;1420;51.324;12.344;2023-06-14T07:49:52;21.70;58.80
2825;DHT22;1420;51.324;12.344;2023-06-14T07:52:19;21.50;58.00
2825;DHT22;1420;51.324;12.344;2023-06-14T07:54:46;21.40;58.90
2825;DHT22;1420;51.324;12.344;2023-06-14T07:57:14;21.30;60.80
2825;DHT22;1420;51.324;12.344;2023-06-14T07:59:43;21.20;59.80
2825;DHT22;1420;51.324;12.344;2023-06-14T08:02:11;21.90;56.80
2825;DHT22;1420;51.324;12.344;2023-06-14T08:04:38;21.90;56.70
2825;DHT22;1420;51.324;12.344;2023-06-14T08:07:05;22.00;55.40
2825;DHT22;1420;51.324;12.344;2023-06-14T08:09:32;21.80;55.10
2825;DHT22;1420;51.324;12.344;2023-06-14T08:11:59;21.80;55.60
2825;DHT22;1420;51.324;12.344;2023-06-14T08:14:27;21.30;56.50
2825;DHT22;1420;51.324;12.344;2023-06-14T08:16:54;21.40;57.00
2825;DHT22;1420;51.324;12.344;2023-06-14T08:19:22;22.40;54.70
2825;DHT22;1420;51.324;12.344;2023-06-14T08:21:49;22.30;54.60
2825;DHT22;1420;51.324;12.344;2023-06-14T08:24:16;22.10;52.70
2825;DHT22;1420;51.324;12.344;2023-06-14T08:26:44;21.90;52.80
2825;DHT22;1420;51.324;12.344;2023-06-14T08:29:12;21.80;54.00
2825;DHT22;1420;51.324;12.344;2023-06-14T08:31:39;21.70;53.90
2825;DHT22;1420;51.324;12.344;2023-06-14T08:34:07;22.00;51.30
2825;DHT22;1420;51.324;12.344;2023-06-14T08:36:35;21.40;52.30
2825;DHT22;1420;51.324;12.344;2023-06-14T08:39:01;21.60;52.60
2825;DHT22;1420;51.324;12.344;2023-06-14T08:41:28;22.20;52.10
2825;DHT22;1420;51.324;12.344;2023-06-14T08:43:56;22.20;50.70
2825;DHT22;1420;51.324;12.344;2023-06-14T08:46:23;21.80;52.20
2825;DHT22;1420;51.324;12.344;2023-06-14T08:48:51;21.30;53.00
2825;DHT22;1420;51.324;12.344;2023-06-14T08:51:19;21.70;52.90
2825;DHT22;1420;51.324;12.344;2023-06-14T08:53:48;21.70;52.30
2825;DHT22;1420;51.324;12.344;2023-06-14T08:56:15;21.70;52.90
2825;DHT22;1420;51.324;12.344;2023-06-14T08:58:43;22.40;52.80
2825;DHT22;1420;51.324;12.344;2023-06-14T09:01:11;23.30;50.20
2825;DHT22;1420;51.324;12.344;2023-06-14T09:03:41;23.30;50.20
2825;DHT22;1420;51.324;12.344;2023-06-14T09:06:09;23.20;49.40
2825;DHT22;1420;51.324;12.344;2023-06-14T09:08:36;23.00;47.10
2825;DHT22;1420;51.324;12.344;2023-06-14T09:11:05;23.00;47.50
2825;DHT22;1420;51.324;12.344;2023-06-14T09:13:35;22.40;47.90
2825;DHT22;1420;51.324;12.344;2023-06-14T09:16:03;21.70;47.50
2825;DHT22;1420;51.324;12.344;2023-06-14T09:18:38;21.60;49.30
2825;DHT22;1420;51.324;12.344;2023-06-14T09:21:06;22.00;46.50
2825;DHT22;1420;51.324;12.344;2023-06-14T09:23:37;22.30;46.90
2825;DHT22;1420;51.324;12.344;2023-06-14T09:26:08;22.30;46.90
2825;DHT22;1420;51.324;12.344;2023-06-14T09:28:35;22.30;46.70
2825;DHT22;1420;51.324;12.344;2023-06-14T09:31:02;22.20;46.50
2825;DHT22;1420;51.324;12.344;2023-06-14T09:33:30;22.80;46.00
2825;DHT22;1420;51.324;12.344;2023-06-14T09:35:57;23.50;44.40
2825;DHT22;1420;51.324;12.344;2023-06-14T09:38:25;23.40;43.50
2825;DHT22;1420;51.324;12.344;2023-06-14T09:40:56;23.60;42.20
2825;DHT22;1420;51.324;12.344;2023-06-14T09:43:21;23.60;42.20
2825;DHT22;1420;51.324;12.344;2023-06-14T09:45:48;23.60;43.00
2825;DHT22;1420;51.324;12.344;2023-06-14T09:48:15;22.80;43.90
2825;DHT22;1420;51.324;12.344;2023-06-14T09:50:44;23.10;44.00
2825;DHT22;1420;51.324;12.344;2023-06-14T09:53:10;23.30;44.20
2825;DHT22;1420;51.324;12.344;2023-06-14T09:55:37;23.40;42.50
2825;DHT22;1420;51.324;12.344;2023-06-14T09:58:04;23.20;42.00
2825;DHT22;1420;51.324;12.344;2023-06-14T10:00:32;23.70;43.10
2825;DHT22;1420;51.324;12.344;2023-06-14T10:03:01;24.00;40.80
2825;DHT22;1420;51.324;12.344;2023-06-14T10:05:27;24.00;40.60
2825;DHT22;1420;51.324;12.344;2023-06-14T10:07:59;23.50;40.80
2825;DHT22;1420;51.324;12.344;2023-06-14T10:10:23;23.10;41.30
2825;DHT22;1420;51.324;12.344;2023-06-14T10:12:51;22.40;41.90
2825;DHT22;1420;51.324;12.344;2023-06-14T10:15:22;22.40;42.00
2825;DHT22;1420;51.324;12.344;2023-06-14T10:17:54;23.20;42.20
2825;DHT22;1420;51.324;12.344;2023-06-14T10:20:29;23.80;39.40
2825;DHT22;1420;51.324;12.344;2023-06-14T10:22:58;23.70;39.30
2825;DHT22;1420;51.324;12.344;2023-06-14T10:25:27;23.50;40.10
2825;DHT22;1420;51.324;12.344;2023-06-14T10:28:02;22.70;41.00
2825;DHT22;1420;51.324;12.344;2023-06-14T10:30:24;23.40;40.60
2825;DHT22;1420;51.324;12.344;2023-06-14T10:35:27;23.40;40.60
2825;DHT22;1420;51.324;12.344;2023-06-14T10:37:55;23.50;42.10
2825;DHT22;1420;51.324;12.344;2023-06-14T10:40:30;23.80;42.10
2825;DHT22;1420;51.324;12.344;2023-06-14T10:42:56;23.70;42.00
2825;DHT22;1420;51.324;12.344;2023-06-14T10:45:23;23.70;41.80
2825;DHT22;1420;51.324;12.344;2023-06-14T10:47:51;23.70;42.60
2825;DHT22;1420;51.324;12.344;2023-06-14T10:50:19;23.60;41.80
2825;DHT22;1420;51.324;12.344;2023-06-14T10:52:45;22.90;43.60
2825;DHT22;1420;51.324;12.344;2023-06-14T10:55:14;22.90;42.90
2825;DHT22;1420;51.324;12.344;2023-06-14T10:57:50;22.90;43.40
2825;DHT22;1420;51.324;12.344;2023-06-14T11:00:19;22.20;44.10
2825;DHT22;1420;51.324;12.344;2023-06-14T11:02:51;22.40;43.10
2825;DHT22;1420;51.324;12.344;2023-06-14T11:05:21;22.60;43.40
2825;DHT22;1420;51.324;12.344;2023-06-14T11:10:37;22.30;43.50
2825;DHT22;1420;51.324;12.344;2023-06-14T11:13:04;22.30;44.70
2825;DHT22;1420;51.324;12.344;2023-06-14T11:15:34;22.60;43.80
2825;DHT22;1420;51.324;12.344;2023-06-14T11:18:04;22.50;44.20
2825;DHT22;1420;51.324;12.344;2023-06-14T11:20:31;22.40;44.10
2825;DHT22;1420;51.324;12.344;2023-06-14T11:22:57;22.50;44.30
2825;DHT22;1420;51.324;12.344;2023-06-14T11:25:25;22.70;43.80
2825;DHT22;1420;51.324;12.344;2023-06-14T11:27:52;22.70;44.00
2825;DHT22;1420;51.324;12.344;2023-06-14T11:30:19;22.50;45.20
2825;DHT22;1420;51.324;12.344;2023-06-14T11:32:50;22.50;44.20
2825;DHT22;1420;51.324;12.344;2023-06-14T11:35:16;22.70;44.60
2825;DHT22;1420;51.324;12.344;2023-06-14T11:37:44;22.30;44.50
2825;DHT22;1420;51.324;12.344;2023-06-14T11:40:11;22.20;45.30
2825;DHT22;1420;51.324;12.344;2023-06-14T11:42:40;22.20;44.80
2825;DHT22;1420;51.324;12.344;2023-06-14T11:45:07;22.10;45.40
2825;DHT22;1420;51.324;12.344;2023-06-14T11:47:35;22.30;45.80
2825;DHT22;1420;51.324;12.344;2023-06-14T11:50:02;22.10;45.90
2825;DHT22;1420;51.324;12.344;2023-06-14T11:52:29;22.20;45.70
2825;DHT22;1420;51.324;12.344;2023-06-14T11:54:56;22.60;45.90
2825;DHT22;1420;51.324;12.344;2023-06-14T11:57:24;22.80;45.40
2825;DHT22;1420;51.324;12.344;2023-06-14T11:59:51;22.70;45.50
2825;DHT22;1420;51.324;12.344;2023-06-14T12:02:19;21.90;45.00
2825;DHT22;1420;51.324;12.344;2023-06-14T12:04:47;21.60;45.30
2825;DHT22;1420;51.324;12.344;2023-06-14T12:07:17;21.80;45.40
2825;DHT22;1420;51.324;12.344;2023-06-14T12:10:07;22.10;45.70
2825;DHT22;1420;51.324;12.344;2023-06-14T12:12:37;22.00;45.70
2825;DHT22;1420;51.324;12.344;2023-06-14T12:15:04;22.90;43.70
2825;DHT22;1420;51.324;12.344;2023-06-14T12:17:32;23.00;42.60
2825;DHT22;1420;51.324;12.344;2023-06-14T12:19:59;22.90;43.40
2825;DHT22;1420;51.324;12.344;2023-06-14T12:22:27;22.40;44.30
2825;DHT22;1420;51.324;12.344;2023-06-14T12:24:53;22.40;44.20
2825;DHT22;1420;51.324;12.344;2023-06-14T12:27:21;22.30;45.40
2825;DHT22;1420;51.324;12.344;2023-06-14T12:29:56;22.10;45.80
2825;DHT22;1420;51.324;12.344;2023-06-14T12:32:16;22.10;45.30
2825;DHT22;1420;51.324;12.344;2023-06-14T12:34:44;22.60;44.30
2825;DHT22;1420;51.324;12.344;2023-06-14T12:37:12;22.80;42.10
2825;DHT22;1420;51.324;12.344;2023-06-14T12:39:39;22.60;42.80
2825;DHT22;1420;51.324;12.344;2023-06-14T12:42:07;22.60;42.70
2825;DHT22;1420;51.324;12.344;2023-06-14T12:44:34;22.20;46.10
2825;DHT22;1420;51.324;12.344;2023-06-14T12:47:01;22.10;47.60
2825;DHT22;1420;51.324;12.344;2023-06-14T12:49:28;22.30;47.30
2825;DHT22;1420;51.324;12.344;2023-06-14T12:51:56;22.10;47.80
2825;DHT22;1420;51.324;12.344;2023-06-14T12:54:24;22.10;47.80
2825;DHT22;1420;51.324;12.344;2023-06-14T12:56:51;21.50;49.50
2825;DHT22;1420;51.324;12.344;2023-06-14T12:59:19;21.70;50.10
2825;DHT22;1420;51.324;12.344;2023-06-14T13:01:46;21.70;50.00
2825;DHT22;1420;51.324;12.344;2023-06-14T13:04:14;21.40;50.90
2825;DHT22;1420;51.324;12.344;2023-06-14T13:06:42;21.40;50.50
2825;DHT22;1420;51.324;12.344;2023-06-14T13:09:10;21.30;51.00
2825;DHT22;1420;51.324;12.344;2023-06-14T13:11:38;21.30;51.50
2825;DHT22;1420;51.324;12.344;2023-06-14T13:14:06;21.60;51.60
2825;DHT22;1420;51.324;12.344;2023-06-14T13:16:35;21.50;51.50
2825;DHT22;1420;51.324;12.344;2023-06-14T13:19:04;21.70;51.20
2825;DHT22;1420;51.324;12.344;2023-06-14T13:21:31;21.60;51.10
2825;DHT22;1420;51.324;12.344;2023-06-14T13:23:59;21.80;51.50
2825;DHT22;1420;51.324;12.344;2023-06-14T13:26:26;21.40;52.30
2825;DHT22;1420;51.324;12.344;2023-06-14T13:28:54;21.20;52.90
2825;DHT22;1420;51.324;12.344;2023-06-14T13:31:22;21.50;53.20
2825;DHT22;1420;51.324;12.344;2023-06-14T13:33:50;21.40;52.30
2825;DHT22;1420;51.324;12.344;2023-06-14T13:36:18;21.00;51.90
2825;DHT22;1420;51.324;12.344;2023-06-14T13:38:46;20.90;51.70
2825;DHT22;1420;51.324;12.344;2023-06-14T13:41:13;21.20;51.90
2825;DHT22;1420;51.324;12.344;2023-06-14T13:43:40;21.20;52.20
2825;DHT22;1420;51.324;12.344;2023-06-14T13:46:07;21.40;52.10
2825;DHT22;1420;51.324;12.344;2023-06-14T13:48:34;21.60;52.50
2825;DHT22;1420;51.324;12.344;2023-06-14T13:51:02;21.80;51.50
2825;DHT22;1420;51.324;12.344;2023-06-14T13:53:29;21.50;53.40
2825;DHT22;1420;51.324;12.344;2023-06-14T13:55:56;21.70;53.30
2825;DHT22;1420;51.324;12.344;2023-06-14T13:58:23;22.10;52.50
2825;DHT22;1420;51.324;12.344;2023-06-14T14:00:50;22.10;52.40
2825;DHT22;1420;51.324;12.344;2023-06-14T14:03:18;21.90;52.00
2825;DHT22;1420;51.324;12.344;2023-06-14T14:05:45;21.80;53.00
2825;DHT22;1420;51.324;12.344;2023-06-14T14:08:12;21.70;53.40
2825;DHT22;1420;51.324;12.344;2023-06-14T14:10:39;21.70;53.50
2825;DHT22;1420;51.324;12.344;2023-06-14T14:13:07;21.60;53.80
2825;DHT22;1420;51.324;12.344;2023-06-14T14:15:35;21.50;54.70
2825;DHT22;1420;51.324;12.344;2023-06-14T14:18:03;21.80;53.80
2825;DHT22;1420;51.324;12.344;2023-06-14T14:20:31;21.70;54.00
2825;DHT22;1420;51.324;12.344;2023-06-14T14:22:58;21.60;53.80
2825;DHT22;1420;51.324;12.344;2023-06-14T14:25:26;21.60;54.10
2825;DHT22;1420;51.324;12.344;2023-06-14T14:27:53;21.60;53.60
2825;DHT22;1420;51.324;12.344;2023-06-14T14:30:20;21.60;53.90
2825;DHT22;1420;51.324;12.344;2023-06-14T14:32:48;21.30;53.80
2825;DHT22;1420;51.324;12.344;2023-06-14T14:35:15;21.30;54.20
2825;DHT22;1420;51.324;12.344;2023-06-14T14:37:42;21.70;53.80
2825;DHT22;1420;51.324;12.344;2023-06-14T14:40:09;22.10;52.70
2825;DHT22;1420;51.324;12.344;2023-06-14T14:42:37;22.40;51.40
2825;DHT22;1420;51.324;12.344;2023-06-14T14:45:05;22.00;52.20
2825;DHT22;1420;51.324;12.344;2023-06-14T14:47:32;22.20;51.90
2825;DHT22;1420;51.324;12.344;2023-06-14T14:50:00;22.50;51.70
2825;DHT22;1420;51.324;12.344;2023-06-14T14:52:28;22.20;52.90
2825;DHT22;1420;51.324;12.344;2023-06-14T14:54:56;22.30;52.40
2825;DHT22;1420;51.324;12.344;2023-06-14T14:57:24;22.10;52.50
2825;DHT22;1420;51.324;12.344;2023-06-14T14:59:52;22.00;53.40
2825;DHT22;1420;51.324;12.344;2023-06-14T15:02:20;22.10;53.60
2825;DHT22;1420;51.324;12.344;2023-06-14T15:04:47;22.10;53.50
2825;DHT22;1420;51.324;12.344;2023-06-14T15:07:15;22.10;51.80
2825;DHT22;1420;51.324;12.344;2023-06-14T15:09:42;21.90;51.60
2825;DHT22;1420;51.324;12.344;2023-06-14T15:12:10;21.80;51.20
2825;DHT22;1420;51.324;12.344;2023-06-14T15:14:38;21.60;52.60
2825;DHT22;1420;51.324;12.344;2023-06-14T15:17:06;21.30;53.00
2825;DHT22;1420;51.324;12.344;2023-06-14T15:19:33;21.30;53.00
2825;DHT22;1420;51.324;12.344;2023-06-14T15:22:00;21.50;54.10
2825;DHT22;1420;51.324;12.344;2023-06-14T15:24:27;21.80;52.20
2825;DHT22;1420;51.324;12.344;2023-06-14T15:26:55;22.00;49.80
2825;DHT22;1420;51.324;12.344;2023-06-14T15:29:22;21.70;49.80
2825;DHT22;1420;51.324;12.344;2023-06-14T15:31:49;21.60;50.50
2825;DHT22;1420;51.324;12.344;2023-06-14T15:34:16;21.90;50.80
2825;DHT22;1420;51.324;12.344;2023-06-14T15:36:43;22.10;50.30
2825;DHT22;1420;51.324;12.344;2023-06-14T15:39:11;22.10;51.30
2825;DHT22;1420;51.324;12.344;2023-06-14T15:41:38;22.10;51.50
2825;DHT22;1420;51.324;12.344;2023-06-14T15:44:05;22.30;51.60
2825;DHT22;1420;51.324;12.344;2023-06-14T15:46:32;22.50;50.50
2825;DHT22;1420;51.324;12.344;2023-06-14T15:48:59;22.20;50.50
2825;DHT22;1420;51.324;12.344;2023-06-14T15:51:27;22.40;50.60
2825;DHT22;1420;51.324;12.344;2023-06-14T15:53:55;22.10;49.70
2825;DHT22;1420;51.324;12.344;2023-06-14T15:56:23;21.90;50.60
2825;DHT22;1420;51.324;12.344;2023-06-14T15:58:51;21.90;50.20